createdAt,value
2022-10-10T00:01:20.410Z,3.10
2022-10-10T00:03:48.011Z,3.10
2022-10-10T00:06:16.307Z,3.10
2022-10-10T00:08:44.027Z,3.00
2022-10-10T00:11:12.081Z,3.00
2022-10-10T00:13:39.093Z,3.00
2022-10-10T00:16:06.499Z,3.00
2022-10-10T00:18:34.385Z,3.00
2022-10-10T00:21:01.285Z,3.00
2022-10-10T00:23:28.307Z,3.00
2022-10-10T00:25:55.464Z,3.00
2022-10-10T00:28:22.706Z,2.90
2022-10-10T00:30:49.773Z,2.90
2022-10-10T00:33:16.695Z,2.90
2022-10-10T00:35:43.750Z,2.90
2022-10-10T00:38:11.448Z,2.90
2022-10-10T00:40:50.110Z,2.80
2022-10-10T00:43:17.754Z,2.80
2022-10-10T00:45:46.971Z,2.80
2022-10-10T00:48:24.389Z,2.70
2022-10-10T00:51:05.494Z,2.70
2022-10-10T00:53:41.292Z,2.70
2022-10-10T00:56:09.117Z,2.70
2022-10-10T00:58:39.638Z,2.60
2022-10-10T01:01:07.205Z,2.60
2022-10-10T01:03:34.164Z,2.60
2022-10-10T01:06:01.316Z,2.60
2022-10-10T01:08:28.726Z,2.50
2022-10-10T01:11:22.111Z,2.50
2022-10-10T01:14:13.347Z,2.50
2022-10-10T01:16:53.817Z,2.50
2022-10-10T01:19:48.665Z,2.50
2022-10-10T01:22:53.330Z,2.50
2022-10-10T01:25:31.863Z,2.50
2022-10-10T01:28:21.182Z,2.60
2022-10-10T01:30:49.614Z,2.60
2022-10-10T01:33:25.106Z,2.70
2022-10-10T01:36:04.331Z,2.70
2022-10-10T01:38:36.428Z,2.70
2022-10-10T01:41:24.125Z,2.70
2022-10-10T01:43:55.351Z,2.80
2022-10-10T01:46:22.647Z,2.70
2022-10-10T01:48:52.410Z,2.80
2022-10-10T01:51:46.961Z,2.70
2022-10-10T01:54:46.206Z,2.80
2022-10-10T01:57:35.510Z,2.90
2022-10-10T02:00:07.628Z,2.90
2022-10-10T02:02:37.263Z,2.90
2022-10-10T02:05:23.791Z,3.00
2022-10-10T02:08:21.470Z,3.00
2022-10-10T02:10:55.705Z,3.10
2022-10-10T02:13:27.560Z,3.10
2022-10-10T02:15:58.033Z,3.20
2022-10-10T02:18:29.220Z,3.30
2022-10-10T02:20:56.786Z,3.40
2022-10-10T02:23:24.592Z,3.50
2022-10-10T02:25:54.299Z,3.50
2022-10-10T02:28:25.975Z,3.60
2022-10-10T02:30:57.852Z,3.70
2022-10-10T02:33:30.293Z,3.80
2022-10-10T02:35:57.923Z,3.90
2022-10-10T02:38:26.128Z,3.90
2022-10-10T02:40:54.936Z,4.00
2022-10-10T02:43:22.619Z,4.10
2022-10-10T02:45:49.903Z,4.20
2022-10-10T02:48:16.944Z,4.20
2022-10-10T02:50:44.657Z,4.30
2022-10-10T02:53:11.842Z,4.40
2022-10-10T02:55:38.803Z,4.60
2022-10-10T02:58:05.789Z,4.60
2022-10-10T03:00:32.774Z,4.70
2022-10-10T03:02:59.706Z,4.70
2022-10-10T03:05:26.737Z,4.80
2022-10-10T03:07:53.699Z,4.80
2022-10-10T03:10:20.594Z,4.90
2022-10-10T03:12:47.757Z,4.90
2022-10-10T03:15:14.970Z,5.00
2022-10-10T03:17:42.622Z,5.00
2022-10-10T03:20:10.074Z,5.10
2022-10-10T03:22:37.072Z,5.10
2022-10-10T03:25:04.451Z,5.10
2022-10-10T03:27:31.637Z,5.20
2022-10-10T03:29:58.616Z,5.20
2022-10-10T03:32:25.939Z,5.30
2022-10-10T03:34:52.830Z,5.30
2022-10-10T03:37:19.805Z,5.30
2022-10-10T03:39:46.722Z,5.30
2022-10-10T03:42:13.684Z,5.30
2022-10-10T03:44:40.598Z,5.30
2022-10-10T03:47:07.538Z,5.30
2022-10-10T03:49:34.470Z,5.30
2022-10-10T03:52:01.611Z,5.30
2022-10-10T03:54:28.678Z,5.30
2022-10-10T03:56:55.622Z,5.30
2022-10-10T03:59:22.867Z,5.30
2022-10-10T04:01:49.797Z,5.30
2022-10-10T04:04:16.812Z,5.30
2022-10-10T04:06:43.828Z,5.30
2022-10-10T04:09:10.816Z,5.30
2022-10-10T04:11:38.748Z,5.30
2022-10-10T04:14:05.687Z,5.30
2022-10-10T04:16:32.809Z,5.40
2022-10-10T04:18:59.749Z,5.30
2022-10-10T04:21:26.718Z,5.40
2022-10-10T04:23:53.660Z,5.40
2022-10-10T04:26:20.576Z,5.40
2022-10-10T04:28:47.586Z,5.40
2022-10-10T04:31:14.569Z,5.50
2022-10-10T04:33:41.494Z,5.40
2022-10-10T04:36:08.663Z,5.40
2022-10-10T04:38:36.581Z,5.40
2022-10-10T04:41:03.666Z,5.50
2022-10-10T04:43:30.645Z,5.50
2022-10-10T04:46:00.898Z,5.60
2022-10-10T04:48:27.855Z,5.60
2022-10-10T04:50:57.124Z,5.60
2022-10-10T04:53:25.033Z,5.70
2022-10-10T04:55:52.083Z,5.60
2022-10-10T04:58:19.956Z,5.60
2022-10-10T05:00:51.503Z,5.60
2022-10-10T05:03:18.517Z,5.70
2022-10-10T05:05:45.459Z,5.70
2022-10-10T05:08:12.406Z,5.70
2022-10-10T05:10:39.971Z,5.70
2022-10-10T05:13:10.878Z,5.70
2022-10-10T05:15:38.136Z,5.80
2022-10-10T05:18:05.453Z,5.80
2022-10-10T05:20:34.111Z,5.90
2022-10-10T05:23:01.112Z,5.90
2022-10-10T05:25:28.050Z,5.90
2022-10-10T05:27:55.304Z,5.90
2022-10-10T05:30:22.236Z,6.00
2022-10-10T05:32:49.515Z,6.00
2022-10-10T05:35:17.717Z,6.00
2022-10-10T05:37:44.638Z,6.00
2022-10-10T05:40:11.648Z,6.00
2022-10-10T05:42:38.691Z,6.10
2022-10-10T05:45:06.125Z,6.10
2022-10-10T05:47:33.028Z,6.20
2022-10-10T05:49:59.961Z,6.20
2022-10-10T05:52:28.794Z,6.30
2022-10-10T05:54:55.803Z,6.30
2022-10-10T05:57:22.790Z,6.30
2022-10-10T05:59:49.726Z,6.30
2022-10-10T06:02:16.726Z,6.30
2022-10-10T06:04:43.814Z,6.30
2022-10-10T06:07:10.786Z,6.40
2022-10-10T06:09:37.757Z,6.40
2022-10-10T06:12:04.758Z,6.50
2022-10-10T06:14:31.706Z,6.60
2022-10-10T06:16:58.679Z,6.60
2022-10-10T06:19:25.625Z,6.70
2022-10-10T06:21:52.576Z,6.80
2022-10-10T06:24:19.570Z,6.90
2022-10-10T06:26:46.506Z,6.90
2022-10-10T06:29:13.423Z,7.00
2022-10-10T06:31:41.368Z,7.00
2022-10-10T06:34:08.387Z,7.10
2022-10-10T06:36:35.698Z,7.20
2022-10-10T06:39:02.802Z,7.20
2022-10-10T06:41:29.752Z,7.20
2022-10-10T06:43:56.830Z,7.10
2022-10-10T06:46:23.747Z,7.20
2022-10-10T06:48:51.107Z,7.30
2022-10-10T06:51:19.044Z,7.40
2022-10-10T06:53:46.432Z,7.60
2022-10-10T06:56:18.024Z,7.80
2022-10-10T06:58:45.123Z,7.90
2022-10-10T07:01:12.658Z,8.10
2022-10-10T07:03:39.696Z,8.30
2022-10-10T07:06:10.211Z,8.40
2022-10-10T07:08:37.880Z,8.70
2022-10-10T07:11:05.703Z,9.10
2022-10-10T07:13:32.837Z,9.50
2022-10-10T07:15:59.953Z,9.80
2022-10-10T07:18:27.440Z,10.20
2022-10-10T07:20:58.932Z,10.70
2022-10-10T07:23:27.330Z,11.00
2022-10-10T07:26:04.118Z,11.20
2022-10-10T07:28:31.566Z,11.20
2022-10-10T07:31:06.173Z,11.20
2022-10-10T07:33:34.720Z,11.30
2022-10-10T07:36:01.743Z,11.30
2022-10-10T07:38:29.080Z,11.40
2022-10-10T07:40:56.046Z,11.40
2022-10-10T07:43:23.182Z,11.40
2022-10-10T07:45:50.298Z,11.30
2022-10-10T07:48:17.722Z,11.20
2022-10-10T07:50:45.226Z,11.10
2022-10-10T07:53:12.817Z,11.00
2022-10-10T07:55:44.226Z,11.00
2022-10-10T07:58:12.222Z,10.90
2022-10-10T08:00:43.023Z,10.90
2022-10-10T08:03:12.153Z,11.00
2022-10-10T08:05:42.840Z,11.10
2022-10-10T08:08:11.088Z,11.30
2022-10-10T08:10:38.280Z,11.50
2022-10-10T08:13:05.653Z,11.60
2022-10-10T08:15:34.045Z,11.60
2022-10-10T08:18:01.263Z,11.80
2022-10-10T08:20:28.174Z,11.80
2022-10-10T08:22:55.111Z,11.80
2022-10-10T08:25:22.079Z,11.90
2022-10-10T08:27:49.020Z,12.00
2022-10-10T08:30:16.035Z,12.10
2022-10-10T08:32:43.306Z,12.10
2022-10-10T08:35:10.215Z,12.20
2022-10-10T08:37:37.488Z,12.30
2022-10-10T08:40:05.072Z,12.40
2022-10-10T08:42:39.567Z,12.40
2022-10-10T08:45:26.347Z,12.50
2022-10-10T08:48:18.472Z,12.50
2022-10-10T08:50:51.422Z,12.60
2022-10-10T08:53:40.852Z,12.60
2022-10-10T08:56:13.541Z,12.70
2022-10-10T08:58:47.509Z,12.80
2022-10-10T09:01:21.048Z,13.00
2022-10-10T09:03:52.364Z,13.00
2022-10-10T09:06:24.925Z,12.90
2022-10-10T09:09:25.624Z,13.00
2022-10-10T09:12:28.063Z,13.10
2022-10-10T09:15:02.697Z,13.30
2022-10-10T09:17:39.680Z,13.40
2022-10-10T09:20:06.597Z,13.50
2022-10-10T09:23:01.533Z,13.60
2022-10-10T09:25:34.562Z,13.70
2022-10-10T09:28:27.963Z,13.80
2022-10-10T09:30:59.725Z,13.90
2022-10-10T09:33:49.811Z,14.00
2022-10-10T09:36:24.885Z,13.90
2022-10-10T09:38:56.805Z,13.90
2022-10-10T09:41:28.279Z,13.80
2022-10-10T09:44:00.419Z,13.80
2022-10-10T09:46:27.548Z,13.90
2022-10-10T09:48:55.290Z,13.80
2022-10-10T09:51:22.520Z,13.80
2022-10-10T09:53:50.273Z,13.80
2022-10-10T09:56:22.661Z,13.90
2022-10-10T09:58:51.897Z,14.10
2022-10-10T10:01:31.785Z,14.20
2022-10-10T10:04:30.166Z,14.20
2022-10-10T10:07:06.986Z,14.30
2022-10-10T10:09:34.165Z,14.30
2022-10-10T10:12:01.394Z,14.30
2022-10-10T10:14:36.738Z,14.30
2022-10-10T10:17:08.411Z,14.30
2022-10-10T10:19:41.197Z,14.30
2022-10-10T10:22:35.565Z,14.40
2022-10-10T10:25:33.427Z,14.50
2022-10-10T10:28:12.345Z,14.50
2022-10-10T10:30:40.787Z,14.50
2022-10-10T10:33:35.781Z,14.70
2022-10-10T10:36:25.759Z,14.60
2022-10-10T10:39:03.097Z,14.50
2022-10-10T10:41:42.920Z,14.30
2022-10-10T10:44:21.802Z,14.40
2022-10-10T10:47:06.544Z,14.70
2022-10-10T10:49:43.203Z,15.20
2022-10-10T10:52:41.881Z,15.30
2022-10-10T10:55:14.913Z,15.50
2022-10-10T10:58:10.450Z,15.60
2022-10-10T11:01:23.297Z,15.80
2022-10-10T11:05:18.127Z,16.10
2022-10-10T11:06:49.062Z,16.10
2022-10-10T11:10:17.449Z,15.70
2022-10-10T11:12:58.120Z,15.10
2022-10-10T11:16:05.940Z,14.60
2022-10-10T11:18:32.555Z,14.40
2022-10-10T11:21:25.744Z,14.20
2022-10-10T11:23:55.666Z,14.00
2022-10-10T11:26:30.182Z,13.90
2022-10-10T11:29:15.470Z,13.90
2022-10-10T11:31:55.103Z,13.80
2022-10-10T11:37:04.828Z,13.90
2022-10-10T11:39:50.999Z,14.00
2022-10-10T11:42:20.751Z,14.00
2022-10-10T11:45:04.510Z,13.90
2022-10-10T11:47:38.475Z,13.80
2022-10-10T11:50:28.704Z,13.80
2022-10-10T11:53:31.743Z,13.80
2022-10-10T11:56:37.442Z,13.70
2022-10-10T11:59:28.138Z,13.80
2022-10-10T12:04:36.315Z,14.30
2022-10-10T12:07:26.283Z,14.60
2022-10-10T12:10:00.086Z,14.80
2022-10-10T12:12:39.907Z,14.90
2022-10-10T12:15:11.347Z,14.90
2022-10-10T12:17:44.875Z,15.00
2022-10-10T12:20:35.897Z,15.10
2022-10-10T12:23:14.761Z,15.30
2022-10-10T12:25:45.769Z,15.30
2022-10-10T12:28:15.646Z,15.20
2022-10-10T12:30:58.878Z,15.00
2022-10-10T12:33:29.047Z,14.80
2022-10-10T12:35:56.132Z,14.60
2022-10-10T12:38:28.626Z,14.30
2022-10-10T12:41:09.300Z,14.20
2022-10-10T12:43:52.714Z,14.10
2022-10-10T12:46:37.021Z,14.10
2022-10-10T12:49:16.383Z,14.20
2022-10-10T12:51:44.783Z,14.00
2022-10-10T12:54:25.716Z,13.90
2022-10-10T12:57:13.009Z,13.70
2022-10-10T12:59:40.634Z,13.60
2022-10-10T13:02:17.344Z,13.40
2022-10-10T13:04:47.947Z,13.30
2022-10-10T13:07:18.961Z,13.20
2022-10-10T13:09:49.395Z,13.10
2022-10-10T13:12:24.459Z,13.00
2022-10-10T13:14:51.659Z,13.10
2022-10-10T13:17:22.259Z,13.10
2022-10-10T13:19:49.450Z,13.10
2022-10-10T13:22:17.686Z,13.20
2022-10-10T13:24:45.825Z,13.30
2022-10-10T13:27:28.568Z,13.40
2022-10-10T13:29:56.175Z,13.50
2022-10-10T13:32:28.925Z,13.50
2022-10-10T13:34:58.901Z,13.70
2022-10-10T13:37:26.684Z,13.70
2022-10-10T13:39:54.268Z,13.70
2022-10-10T13:42:27.164Z,13.80
2022-10-10T13:44:55.908Z,13.80
2022-10-10T13:47:51.395Z,13.90
2022-10-10T13:50:20.986Z,14.10
2022-10-10T13:52:48.201Z,14.30
2022-10-10T13:55:34.416Z,14.40
2022-10-10T13:58:08.955Z,14.40
2022-10-10T14:00:37.980Z,14.40
2022-10-10T14:03:19.774Z,14.40
2022-10-10T14:05:47.514Z,14.30
2022-10-10T14:08:18.452Z,14.30
2022-10-10T14:10:56.121Z,14.30
2022-10-10T14:13:23.154Z,14.20
2022-10-10T14:15:50.371Z,14.10
2022-10-10T14:18:25.807Z,13.90
2022-10-10T14:20:56.561Z,13.60
2022-10-10T14:23:23.796Z,13.40
2022-10-10T14:25:50.973Z,13.20
2022-10-10T14:28:25.293Z,12.90
2022-10-10T14:30:52.618Z,12.80
2022-10-10T14:33:20.293Z,12.60
2022-10-10T14:35:49.286Z,12.40
2022-10-10T14:38:16.627Z,12.30
2022-10-10T14:40:46.353Z,12.20
2022-10-10T14:43:13.878Z,12.00
2022-10-10T14:45:40.883Z,11.90
2022-10-10T14:48:08.351Z,11.80
2022-10-10T14:50:38.442Z,11.70
2022-10-10T14:53:05.877Z,11.60
2022-10-10T14:55:33.474Z,11.50
2022-10-10T14:58:01.568Z,11.50
2022-10-10T15:00:29.117Z,11.40
2022-10-10T15:02:56.684Z,11.30
2022-10-10T15:05:23.735Z,11.20
2022-10-10T15:07:54.044Z,11.10
2022-10-10T15:10:33.553Z,11.00
2022-10-10T15:13:01.815Z,10.90
2022-10-10T15:15:28.916Z,10.80
2022-10-10T15:17:58.151Z,10.70
2022-10-10T15:20:32.054Z,10.50
2022-10-10T15:23:00.671Z,10.40
2022-10-10T15:25:33.379Z,10.30
2022-10-10T15:28:02.493Z,10.20
2022-10-10T15:30:30.340Z,10.10
2022-10-10T15:32:57.287Z,10.00
2022-10-10T15:35:25.595Z,9.90
2022-10-10T15:37:52.715Z,9.80
2022-10-10T15:40:22.948Z,9.70
2022-10-10T15:42:50.779Z,9.60
2022-10-10T15:45:43.671Z,9.50
2022-10-10T15:48:06.108Z,9.40
2022-10-10T15:50:36.129Z,9.30
2022-10-10T15:53:03.114Z,9.20
2022-10-10T15:55:30.058Z,9.10
2022-10-10T15:57:56.965Z,9.00
2022-10-10T16:00:24.050Z,8.90
2022-10-10T16:02:51.018Z,8.80
2022-10-10T16:05:18.014Z,8.70
2022-10-10T16:07:48.372Z,8.70
2022-10-10T16:10:15.852Z,8.60
2022-10-10T16:12:42.843Z,8.60
2022-10-10T16:15:09.990Z,8.50
2022-10-10T16:17:36.963Z,8.50
2022-10-10T16:20:04.465Z,8.40
2022-10-10T16:22:35.476Z,8.40
2022-10-10T16:25:22.234Z,8.30
2022-10-10T16:27:49.254Z,8.30
2022-10-10T16:30:16.677Z,8.30
2022-10-10T16:32:43.658Z,8.30
2022-10-10T16:35:11.539Z,8.30
2022-10-10T16:37:38.982Z,8.30
2022-10-10T16:40:07.357Z,8.30
2022-10-10T16:42:34.478Z,8.30
2022-10-10T16:45:01.418Z,8.30
2022-10-10T16:47:28.522Z,8.20
2022-10-10T16:49:55.523Z,8.20
2022-10-10T16:52:22.493Z,8.20
2022-10-10T16:54:52.174Z,8.10
2022-10-10T16:57:19.635Z,8.20
2022-10-10T16:59:46.776Z,8.10
2022-10-10T17:02:14.327Z,8.10
2022-10-10T17:04:41.317Z,8.10
2022-10-10T17:07:08.587Z,8.10
2022-10-10T17:09:35.601Z,8.10
2022-10-10T17:12:02.733Z,8.10
2022-10-10T17:14:29.663Z,8.10
2022-10-10T17:17:13.074Z,8.00
2022-10-10T17:19:40.761Z,7.90
2022-10-10T17:22:07.853Z,7.90
2022-10-10T17:24:35.579Z,7.80
2022-10-10T17:27:02.725Z,7.80
2022-10-10T17:29:29.724Z,7.80
2022-10-10T17:31:56.721Z,7.70
2022-10-10T17:34:23.783Z,7.70
2022-10-10T17:36:50.831Z,7.70
2022-10-10T17:39:17.859Z,7.60
2022-10-10T17:41:46.144Z,7.60
2022-10-10T17:44:13.673Z,7.50
2022-10-10T17:46:41.455Z,7.50
2022-10-10T17:49:10.703Z,7.50
2022-10-10T17:51:39.384Z,7.50
2022-10-10T17:54:07.253Z,7.50
2022-10-10T17:56:35.042Z,7.50
2022-10-10T17:59:02.604Z,7.50
2022-10-10T18:01:31.050Z,7.40
2022-10-10T18:03:58.728Z,7.50
2022-10-10T18:06:25.830Z,7.50
2022-10-10T18:08:54.137Z,7.50
2022-10-10T18:11:24.715Z,7.40
2022-10-10T18:13:52.248Z,7.40
2022-10-10T18:16:23.071Z,7.40
2022-10-10T18:18:52.207Z,7.40
2022-10-10T18:21:21.587Z,7.50
2022-10-10T18:23:49.289Z,7.50
2022-10-10T18:26:22.207Z,7.60
2022-10-10T18:28:52.468Z,7.60
2022-10-10T18:31:25.396Z,7.70
2022-10-10T18:33:52.522Z,7.70
2022-10-10T18:36:23.005Z,7.80
2022-10-10T18:38:50.383Z,7.80
2022-10-10T18:41:23.636Z,7.70
2022-10-10T18:43:52.062Z,7.60
2022-10-10T18:46:22.313Z,7.60
2022-10-10T18:48:53.868Z,7.60
2022-10-10T18:51:24.866Z,7.50
2022-10-10T18:53:56.127Z,7.50
2022-10-10T18:56:24.771Z,7.50
2022-10-10T18:58:55.109Z,7.60
2022-10-10T19:01:24.915Z,7.50
2022-10-10T19:03:53.270Z,7.40
2022-10-10T19:06:21.351Z,7.30
2022-10-10T19:08:48.448Z,7.20
2022-10-10T19:11:25.547Z,7.10
2022-10-10T19:13:52.672Z,7.00
2022-10-10T19:16:20.781Z,7.00
2022-10-10T19:18:48.029Z,7.00
2022-10-10T19:21:16.276Z,7.00
2022-10-10T19:23:43.652Z,7.10
2022-10-10T19:26:13.410Z,7.10
2022-10-10T19:28:40.911Z,7.10
2022-10-10T19:31:10.983Z,7.10
2022-10-10T19:33:38.620Z,7.00
2022-10-10T19:36:09.514Z,7.00
2022-10-10T19:38:41.082Z,6.90
2022-10-10T19:41:10.406Z,6.90
2022-10-10T19:43:37.411Z,6.90
2022-10-10T19:46:07.254Z,6.90
2022-10-10T19:48:37.095Z,6.90
2022-10-10T19:51:10.710Z,6.90
2022-10-10T19:53:39.032Z,6.90
2022-10-10T19:56:08.873Z,7.00
2022-10-10T19:58:37.222Z,7.00
2022-10-10T20:01:09.946Z,7.00
2022-10-10T20:03:37.296Z,7.10
2022-10-10T20:06:05.282Z,7.10
2022-10-10T20:08:33.329Z,7.20
2022-10-10T20:11:00.868Z,7.10
2022-10-10T20:13:27.871Z,7.10
2022-10-10T20:15:59.420Z,7.10
2022-10-10T20:18:26.588Z,7.00
2022-10-10T20:20:53.875Z,7.00
2022-10-10T20:23:24.414Z,6.90
2022-10-10T20:25:52.607Z,6.90
2022-10-10T20:28:22.141Z,6.90
2022-10-10T20:30:51.565Z,6.90
2022-10-10T20:33:21.863Z,6.90
2022-10-10T20:35:53.698Z,6.80
2022-10-10T20:38:22.931Z,6.80
2022-10-10T20:40:50.085Z,6.80
2022-10-10T20:43:17.094Z,6.80
2022-10-10T20:45:44.111Z,6.80
2022-10-10T20:48:11.162Z,6.80
2022-10-10T20:50:38.952Z,6.70
2022-10-10T20:53:06.627Z,6.70
2022-10-10T20:55:33.690Z,6.70
2022-10-10T20:58:00.762Z,6.70
2022-10-10T21:00:27.796Z,6.70
2022-10-10T21:02:56.280Z,6.60
2022-10-10T21:05:23.628Z,6.60
2022-10-10T21:07:50.805Z,6.50
2022-10-10T21:10:18.080Z,6.50
2022-10-10T21:12:45.081Z,6.50
2022-10-10T21:15:12.117Z,6.40
2022-10-10T21:17:39.329Z,6.50
2022-10-10T21:20:07.295Z,6.50
2022-10-10T21:22:41.361Z,6.50
2022-10-10T21:25:08.644Z,6.50
2022-10-10T21:27:35.655Z,6.50
2022-10-10T21:30:02.875Z,6.40
2022-10-10T21:32:29.961Z,6.40
2022-10-10T21:34:58.301Z,6.40
2022-10-10T21:37:27.361Z,6.40
2022-10-10T21:39:54.349Z,6.30
2022-10-10T21:42:21.405Z,6.30
2022-10-10T21:44:48.405Z,6.30
2022-10-10T21:47:15.462Z,6.20
2022-10-10T21:49:42.652Z,6.20
2022-10-10T21:52:09.688Z,6.30
2022-10-10T21:54:36.698Z,6.30
2022-10-10T21:57:03.855Z,6.30
2022-10-10T21:59:32.727Z,6.20
2022-10-10T22:01:59.800Z,6.10
2022-10-10T22:04:29.110Z,6.10
2022-10-10T22:06:56.372Z,6.00
2022-10-10T22:09:23.469Z,6.00
2022-10-10T22:11:50.534Z,6.00
2022-10-10T22:14:17.744Z,6.00
2022-10-10T22:16:44.863Z,6.00
2022-10-10T22:19:11.895Z,6.00
2022-10-10T22:21:39.735Z,6.00
2022-10-10T22:24:08.466Z,6.00
2022-10-10T22:26:36.217Z,5.90
2022-10-10T22:29:03.982Z,5.90
2022-10-10T22:31:31.045Z,6.00
2022-10-10T22:33:58.486Z,6.00
2022-10-10T22:36:25.618Z,6.00
2022-10-10T22:38:52.681Z,6.00
2022-10-10T22:41:19.709Z,6.00
2022-10-10T22:43:46.933Z,5.90
2022-10-10T22:46:13.955Z,5.80
2022-10-10T22:48:41.030Z,5.80
2022-10-10T22:51:12.399Z,5.80
2022-10-10T22:53:41.031Z,5.80
2022-10-10T22:56:09.653Z,5.70
2022-10-10T22:58:37.039Z,5.70
2022-10-10T23:01:14.153Z,5.70
2022-10-10T23:03:41.372Z,5.80
2022-10-10T23:06:09.547Z,5.90
2022-10-10T23:08:36.869Z,5.90
2022-10-10T23:11:04.117Z,5.80
2022-10-10T23:13:32.724Z,5.80
2022-10-10T23:15:59.723Z,5.80
2022-10-10T23:18:28.754Z,5.80
2022-10-10T23:20:56.433Z,5.70
2022-10-10T23:23:23.742Z,5.70
2022-10-10T23:25:51.191Z,5.60
2022-10-10T23:28:18.397Z,5.60
2022-10-10T23:30:47.143Z,5.60
2022-10-10T23:33:14.534Z,5.60
2022-10-10T23:35:41.501Z,5.60
2022-10-10T23:38:09.414Z,5.60
2022-10-10T23:40:36.365Z,5.60
2022-10-10T23:43:03.334Z,5.70
2022-10-10T23:45:30.357Z,5.80
2022-10-10T23:47:57.298Z,5.80
2022-10-10T23:50:24.250Z,5.90
2022-10-10T23:52:51.193Z,5.90
2022-10-10T23:55:18.240Z,5.80
2022-10-10T23:57:45.141Z,5.80
